Time;durP1;ratioP1;P1;durP2;ratioP2;P2;SDS_P1;SDS_P2;PMS_P1;PMS_P2;Temp;Humidity;BMP_temperature;BMP_pressure;BME280_temperature;BME280_humidity;BME280_pressure;Samples;Min_cycle;Max_cycle;Signal;HPM_P1;HPM_P2
2022/02/25 00:01:24;;;;;;;;;;;;;;;27.63;51.19;101326.19;4989669;28;70307;-43
2022/02/25 00:03:55;;;;;;;;;;;;;;;27.69;52.19;101338.91;4996132;27;65283;-43
2022/02/25 00:06:25;;;;;;;;;;;;;;;27.71;52.39;101344.13;4997002;27;70075;-42
2022/02/25 00:08:55;;;;;;;;;;;;;;;27.78;53.13;101350.44;4980418;28;65845;-41
2022/02/25 00:11:25;;;;;;;;;;;;;;;27.71;53.44;101353.03;4979164;27;69792;-41
2022/02/25 00:13:54;;;;;;;;;;;;;;;27.76;53.88;101352.50;4977834;28;65862;-41
2022/02/25 00:16:25;;;;;;;;;;;;;;;27.55;53.25;101359.50;4983316;28;70321;-41
2022/02/25 00:18:55;;;;;;;;;;;;;;;27.39;53.84;101370.44;4969467;28;65140;-42
2022/02/25 00:21:25;;;;;;;;;;;;;;;27.32;54.14;101364.94;4964450;28;70874;-43
2022/02/25 00:23:55;;;;;;;;;;;;;;;27.38;54.93;101371.44;4976693;28;66951;-42
2022/02/25 00:26:25;;;;;;;;;;;;;;;27.44;55.08;101376.09;4953292;28;69005;-43
2022/02/25 00:28:55;;;;;;;;;;;;;;;27.51;54.96;101368.94;4968007;28;65660;-44
2022/02/25 00:31:25;;;;;;;;;;;;;;;27.57;55.23;101373.59;4979726;28;69434;-46
2022/02/25 00:33:56;;;;;;;;;;;;;;;27.61;54.77;101364.13;4961884;28;66386;-46
2022/02/25 00:36:26;;;;;;;;;;;;;;;27.68;54.00;101376.84;4980638;28;70054;-43
2022/02/25 00:38:56;;;;;;;;;;;;;;;27.73;53.31;101374.44;4977792;28;65533;-42
2022/02/25 00:41:26;;;;;;;;;;;;;;;27.79;53.36;101395.25;4978922;28;70206;-41
2022/02/25 00:43:56;;;;;;;;;;;;;;;27.84;53.08;101409.88;4980002;28;65542;-40
2022/02/25 00:46:27;;;;;;;;;;;;;;;27.89;53.50;101425.50;4979148;28;69441;-41
2022/02/25 00:48:57;;;;;;;;;;;;;;;27.95;53.45;101422.03;4981267;28;65512;-41
2022/02/25 00:51:27;;;;;;;;;;;;;;;28.00;53.50;101430.41;4980043;28;69737;-40
2022/02/25 00:53:57;;;;;;;;;;;;;;;28.04;53.43;101431.69;4979478;28;67026;-40
2022/02/25 00:56:28;;;;;;;;;;;;;;;28.10;52.97;101429.28;4977141;28;70706;-41
2022/02/25 00:58:57;;;;;;;;;;;;;;;28.13;52.51;101423.50;4979165;28;66398;-40
2022/02/25 01:01:27;;;;;;;;;;;;;;;28.17;52.84;101435.59;4979695;27;70248;-41
2022/02/25 01:03:58;;;;;;;;;;;;;;;28.19;52.33;101420.88;4978140;28;66720;-40
2022/02/25 01:06:29;;;;;;;;;;;;;;;28.23;52.37;101429.44;4979887;27;70923;-39
2022/02/25 01:08:59;;;;;;;;;;;;;;;28.25;52.24;101419.28;4974986;28;65784;-40
2022/02/25 01:11:29;;;;;;;;;;;;;;;28.28;52.11;101430.53;4960606;28;69723;-40
2022/02/25 01:14:00;;;;;;;;;;;;;;;28.31;51.93;101425.81;4958528;28;66705;-40
2022/02/25 01:16:30;;;;;;;;;;;;;;;28.34;51.97;101415.47;4977226;28;70152;-40
2022/02/25 01:19:03;;;;;;;;;;;;;;;28.36;51.93;101413.41;4990224;28;65622;-40
2022/02/25 01:21:33;;;;;;;;;;;;;;;28.38;51.73;101432.94;4966684;28;69179;-40
2022/02/25 01:24:03;;;;;;;;;;;;;;;28.41;51.67;101437.09;4978433;28;65895;-40
2022/02/25 01:26:33;;;;;;;;;;;;;;;28.43;51.45;101438.63;5034594;28;69866;-41
2022/02/25 01:29:02;;;;;;;;;;;;;;;28.44;51.19;101426.78;4977170;28;66020;-41
2022/02/25 01:31:32;;;;;;;;;;;;;;;28.46;51.26;101413.94;4977848;28;70246;-41
2022/02/25 01:34:02;;;;;;;;;;;;;;;28.48;51.42;101414.59;4981200;27;65074;-40
2022/02/25 01:36:32;;;;;;;;;;;;;;;28.48;51.04;101414.59;4976422;28;70617;-40
2022/02/25 01:39:02;;;;;;;;;;;;;;;28.51;50.96;101422.31;4978377;28;66472;-40
2022/02/25 01:41:32;;;;;;;;;;;;;;;28.55;50.88;101430.03;4973196;28;69268;-41
2022/02/25 01:44:16;;;;;;;;;;;;;;;28.57;50.73;101430.69;4969064;28;65951;-41
2022/02/25 01:46:47;;;;;;;;;;;;;;;28.58;50.69;101430.47;4978879;28;70655;-41
2022/02/25 01:49:18;;;;;;;;;;;;;;;28.60;50.70;101435.69;4978488;28;65636;-41
2022/02/25 01:51:48;;;;;;;;;;;;;;;28.62;50.67;101434.47;4973473;28;70596;-40
2022/02/25 01:54:18;;;;;;;;;;;;;;;28.64;50.66;101442.38;4951738;28;66258;-39
2022/02/25 01:56:48;;;;;;;;;;;;;;;28.65;50.77;101455.69;4988835;28;69887;-41
2022/02/25 01:59:18;;;;;;;;;;;;;;;28.67;50.71;101452.81;4968878;28;66483;-41
2022/02/25 02:01:49;;;;;;;;;;;;;;;28.70;50.63;101464.06;4980275;28;70745;-41
2022/02/25 02:04:20;;;;;;;;;;;;;;;28.71;50.39;101459.47;4978944;28;66673;-41
2022/02/25 02:06:52;;;;;;;;;;;;;;;28.73;50.18;101452.88;4979114;28;70376;-40
2022/02/25 02:09:21;;;;;;;;;;;;;;;28.75;50.33;101471.56;4976499;28;66500;-41
2022/02/25 02:11:54;;;;;;;;;;;;;;;28.77;50.22;101463.28;4978818;28;70057;-40
2022/02/25 02:14:24;;;;;;;;;;;;;;;28.78;50.15;101460.41;4973723;28;65554;-41
2022/02/25 02:16:56;;;;;;;;;;;;;;;28.80;50.01;101469.13;4970970;28;70645;-41
2022/02/25 02:19:28;;;;;;;;;;;;;;;28.82;50.21;101467.06;4976225;28;64842;-41
2022/02/25 02:21:58;;;;;;;;;;;;;;;28.84;50.08;101469.59;4968790;28;69809;-40
2022/02/25 02:24:28;;;;;;;;;;;;;;;28.87;49.80;101463.81;4988625;27;66910;-41
2022/02/25 02:26:58;;;;;;;;;;;;;;;28.89;49.82;101469.81;4977251;28;70752;-40
2022/02/25 02:29:28;;;;;;;;;;;;;;;28.90;50.18;101469.66;4975611;28;65819;-40
2022/02/25 02:31:58;;;;;;;;;;;;;;;28.92;49.85;101474.88;4958484;28;70017;-41
2022/02/25 02:34:28;;;;;;;;;;;;;;;28.94;50.11;101487.13;4957758;28;65514;-43
2022/02/25 02:37:00;;;;;;;;;;;;;;;28.97;49.79;101491.31;4950852;28;70272;-41
2022/02/25 02:39:30;;;;;;;;;;;;;;;28.98;49.75;101487.59;4972149;28;66893;-40
2022/02/25 02:42:01;;;;;;;;;;;;;;;29.01;49.41;101487.22;4977373;28;71630;-40
2022/02/25 02:44:31;;;;;;;;;;;;;;;29.03;49.46;101487.00;4974963;28;66058;-40
2022/02/25 02:47:03;;;;;;;;;;;;;;;29.05;49.33;101482.28;4976745;28;70380;-41
2022/02/25 02:49:33;;;;;;;;;;;;;;;29.06;49.59;101478.53;4962645;28;65567;-41
2022/02/25 02:52:03;;;;;;;;;;;;;;;29.09;49.63;101479.00;4964210;28;70236;-41
2022/02/25 02:54:33;;;;;;;;;;;;;;;29.12;49.12;101464.28;4976645;28;66579;-40
2022/02/25 02:57:06;;;;;;;;;;;;;;;29.12;49.21;101473.22;4966559;28;70668;-40
2022/02/25 02:59:35;;;;;;;;;;;;;;;29.15;48.96;101463.88;4966688;28;65767;-41
2022/02/25 03:02:07;;;;;;;;;;;;;;;29.16;49.61;101455.56;4971916;28;70082;-42
2022/02/25 03:04:40;;;;;;;;;;;;;;;29.19;49.33;101457.03;4968859;28;65973;-44
2022/02/25 03:07:11;;;;;;;;;;;;;;;29.21;49.08;101449.59;4975927;28;70519;-41
2022/02/25 03:09:41;;;;;;;;;;;;;;;29.24;49.34;101459.16;4969988;28;67710;-42
2022/02/25 03:12:11;;;;;;;;;;;;;;;29.26;49.21;101447.13;4999942;28;69649;-42
2022/02/25 03:14:40;;;;;;;;;;;;;;;29.28;49.02;101450.50;4963733;28;66447;-42
2022/02/25 03:17:14;;;;;;;;;;;;;;;29.31;48.86;101446.53;4972427;28;70421;-40
2022/02/25 03:19:44;;;;;;;;;;;;;;;29.34;48.80;101446.16;4965083;28;66063;-40
2022/02/25 03:22:14;;;;;;;;;;;;;;;29.36;49.23;101439.53;4977253;28;70531;-40
2022/02/25 03:24:56;;;;;;;;;;;;;;;29.39;48.51;101430.16;4977589;28;65763;-41
2022/02/25 03:27:26;;;;;;;;;;;;;;;29.42;48.70;101434.34;4975493;28;69436;-40
2022/02/25 03:29:56;;;;;;;;;;;;;;;29.45;48.40;101425.84;4963521;28;66515;-40
2022/02/25 03:32:26;;;;;;;;;;;;;;;29.47;48.75;101408.41;4989448;28;70291;-40
2022/02/25 03:34:56;;;;;;;;;;;;;;;29.51;48.46;101408.88;4961126;27;66898;-41
2022/02/25 03:37:28;;;;;;;;;;;;;;;29.53;48.29;101402.22;4968280;28;70559;-43
2022/02/25 03:39:58;;;;;;;;;;;;;;;29.57;48.67;101394.53;4972724;28;65807;-43
2022/02/25 03:42:29;;;;;;;;;;;;;;;29.60;49.45;101388.72;4976358;28;69740;-43
2022/02/25 03:44:58;;;;;;;;;;;;;;;29.63;48.80;101382.97;4985434;28;65801;-44
2022/02/25 03:47:28;;;;;;;;;;;;;;;29.66;48.80;101387.97;4966998;28;70182;-44
2022/02/25 03:49:58;;;;;;;;;;;;;;;29.68;48.92;101383.19;4986829;28;66832;-43
2022/02/25 03:52:29;;;;;;;;;;;;;;;29.71;49.12;101376.56;4965363;28;69049;-42
2022/02/25 03:54:59;;;;;;;;;;;;;;;29.72;48.96;101376.34;4976883;28;66602;-44
2022/02/25 03:57:29;;;;;;;;;;;;;;;29.74;49.24;101368.88;4976591;28;69261;-43
2022/02/25 03:59:59;;;;;;;;;;;;;;;29.75;49.24;101354.31;4988568;28;66980;-43
2022/02/25 04:02:39;;;;;;;;;;;;;;;29.78;48.96;101356.63;4970078;28;69975;-44
2022/02/25 04:05:13;;;;;;;;;;;;;;;29.80;48.83;101346.41;4975874;28;65668;-46
2022/02/25 04:07:46;;;;;;;;;;;;;;;29.82;48.86;101338.94;4965123;28;69114;-44
2022/02/25 04:10:15;;;;;;;;;;;;;;;29.85;48.65;101335.00;4979781;28;64990;-44
2022/02/25 04:12:46;;;;;;;;;;;;;;;29.88;48.59;101325.66;4983510;28;69673;-43
2022/02/25 04:15:19;;;;;;;;;;;;;;;29.90;48.58;101326.31;4958525;28;67001;-43
2022/02/25 04:17:50;;;;;;;;;;;;;;;29.93;48.18;101312.38;4964673;28;69612;-43
2022/02/25 04:20:19;;;;;;;;;;;;;;;29.95;48.54;101304.84;4978017;28;66405;-42
2022/02/25 04:22:49;;;;;;;;;;;;;;;29.97;48.38;101297.38;4962687;28;69305;-42
2022/02/25 04:25:19;;;;;;;;;;;;;;;30.00;47.92;101294.25;4989100;28;66155;-41
2022/02/25 04:27:49;;;;;;;;;;;;;;;30.02;48.34;101289.50;4980828;27;70264;-43
2022/02/25 04:30:22;;;;;;;;;;;;;;;30.04;48.10;101282.84;4979218;28;65714;-42
2022/02/25 04:32:52;;;;;;;;;;;;;;;30.09;48.30;101289.50;4976421;28;69433;-45
2022/02/25 04:35:22;;;;;;;;;;;;;;;30.10;47.91;101275.78;4968027;28;65768;-43
2022/02/25 04:37:52;;;;;;;;;;;;;;;30.13;48.33;101269.13;4975329;28;68990;-43
2022/02/25 04:40:22;;;;;;;;;;;;;;;30.15;47.76;101267.88;4988271;27;67055;-45
2022/02/25 04:42:51;;;;;;;;;;;;;;;30.18;47.80;101264.75;4979447;28;69968;-43
2022/02/25 04:45:22;;;;;;;;;;;;;;;30.20;48.18;101265.41;4978175;28;66136;-44
2022/02/25 04:47:51;;;;;;;;;;;;;;;30.22;48.00;101257.91;4978222;28;69867;-42
2022/02/25 04:50:22;;;;;;;;;;;;;;;30.25;47.90;101245.84;4947354;28;66292;-42
2022/02/25 04:52:51;;;;;;;;;;;;;;;30.27;48.15;101239.19;4978721;28;68845;-42
2022/02/25 04:55:21;;;;;;;;;;;;;;;30.28;48.24;101224.63;4987424;27;66744;-43
2022/02/25 04:57:52;;;;;;;;;;;;;;;30.31;47.82;101222.53;4971495;28;69886;-44
2022/02/25 05:00:25;;;;;;;;;;;;;;;30.33;47.77;101220.44;4977783;28;66275;-44
2022/02/25 05:03:01;;;;;;;;;;;;;;;30.34;47.78;101216.69;4958646;28;70902;-44
2022/02/25 05:05:31;;;;;;;;;;;;;;;30.35;47.71;101210.25;4980209;28;65257;-42
2022/02/25 05:08:01;;;;;;;;;;;;;;;30.36;47.74;101204.63;4978085;28;70335;-42
2022/02/25 05:10:32;;;;;;;;;;;;;;;30.38;47.98;101204.44;4962909;28;66351;-43
2022/02/25 05:13:01;;;;;;;;;;;;;;;30.40;47.69;101202.34;4965272;28;69508;-42
2022/02/25 05:21:07;;;;;;;;;;;;;;;30.42;47.85;101186.72;4980445;28;66039;-43
2022/02/25 05:23:37;;;;;;;;;;;;;;;30.43;47.97;101174.84;4997493;27;69837;-43
2022/02/25 05:26:07;;;;;;;;;;;;;;;30.44;48.43;101179.22;4968526;28;66908;-43
2022/02/25 05:28:39;;;;;;;;;;;;;;;30.45;48.32;101161.94;4977992;28;69699;-43
2022/02/25 05:31:08;;;;;;;;;;;;;;;30.46;47.98;101155.50;4978543;28;66027;-44
2022/02/25 05:33:38;;;;;;;;;;;;;;;30.47;48.09;101146.31;4977521;28;70071;-43
2022/02/25 05:36:10;;;;;;;;;;;;;;;30.47;48.08;101146.31;4979442;28;66101;-42
2022/02/25 05:38:40;;;;;;;;;;;;;;;30.49;48.08;101128.00;4978059;28;70347;-43
2022/02/25 05:41:09;;;;;;;;;;;;;;;30.50;48.37;101113.41;4976610;28;65832;-43
2022/02/25 05:43:39;;;;;;;;;;;;;;;30.52;47.75;101119.44;4978933;28;69815;-43
2022/02/25 05:46:09;;;;;;;;;;;;;;;30.55;47.90;101110.91;4978481;28;65968;-43
2022/02/25 05:48:39;;;;;;;;;;;;;;;30.56;47.90;101107.13;4967064;28;70706;-45
2022/02/25 05:51:09;;;;;;;;;;;;;;;30.57;48.37;101097.97;4979507;28;66689;-42
2022/02/25 05:53:39;;;;;;;;;;;;;;;30.59;47.78;101095.91;4992597;28;70337;-43
2022/02/25 05:56:08;;;;;;;;;;;;;;;30.61;47.76;101093.78;4979819;28;66053;-44
2022/02/25 05:58:38;;;;;;;;;;;;;;;30.63;47.75;101097.13;4960121;28;69995;-42
2022/02/25 06:01:08;;;;;;;;;;;;;;;30.65;47.79;101080.69;4971788;28;66378;-43
2022/02/25 06:03:38;;;;;;;;;;;;;;;30.67;47.66;101074.00;4976558;28;70301;-42
2022/02/25 06:06:08;;;;;;;;;;;;;;;30.69;48.22;101076.47;4979696;28;66863;-43
2022/02/25 06:08:37;;;;;;;;;;;;;;;30.70;48.23;101065.44;4978360;28;69503;-44
2022/02/25 06:11:07;;;;;;;;;;;;;;;30.72;47.92;101062.50;4976496;28;66376;-42
2022/02/25 06:13:37;;;;;;;;;;;;;;;30.73;48.15;101059.59;4991145;27;70794;-42
2022/02/25 06:16:07;;;;;;;;;;;;;;;30.76;48.11;101062.91;4979887;27;66987;-43
2022/02/25 06:18:41;;;;;;;;;;;;;;;30.77;47.78;101048.34;4967562;28;70065;-44
2022/02/25 06:21:11;;;;;;;;;;;;;;;30.77;47.56;101042.91;4971485;28;67099;-43
2022/02/25 06:23:41;;;;;;;;;;;;;;;30.78;47.77;101048.09;4978307;27;70454;-43
2022/02/25 06:26:10;;;;;;;;;;;;;;;30.80;47.74;101037.94;4980532;28;66492;-42
2022/02/25 06:28:40;;;;;;;;;;;;;;;30.81;47.80;101038.75;4978869;27;69684;-42
2022/02/25 06:31:10;;;;;;;;;;;;;;;30.81;48.18;101023.31;4962034;28;66997;-42
2022/02/25 06:33:39;;;;;;;;;;;;;;;30.82;48.14;101019.59;4966830;28;69421;-42
2022/02/25 06:36:09;;;;;;;;;;;;;;;30.83;48.19;101015.00;4977321;28;66052;-42
2022/02/25 06:38:39;;;;;;;;;;;;;;;30.85;48.22;101015.63;4966315;28;69872;-43
2022/02/25 06:41:09;;;;;;;;;;;;;;;30.85;47.88;101002.91;4977264;28;66716;-43
2022/02/25 06:43:38;;;;;;;;;;;;;;;30.87;48.18;101000.81;4996165;27;70164;-42
2022/02/25 06:46:11;;;;;;;;;;;;;;;30.88;48.39;100997.06;4997858;27;67057;-43
2022/02/25 06:48:41;;;;;;;;;;;;;;;30.91;48.24;101001.19;4997165;27;70725;-42
2022/02/25 06:51:12;;;;;;;;;;;;;;;30.93;48.27;101007.25;4996187;28;65975;-42
2022/02/25 06:53:42;;;;;;;;;;;;;;;30.94;48.01;100992.63;4969677;27;69794;-42
2022/02/25 06:56:12;;;;;;;;;;;;;;;30.97;47.93;100992.19;4997945;27;66100;-42
2022/02/25 06:58:42;;;;;;;;;;;;;;;30.98;47.79;100990.31;4976908;28;69973;-42
2022/02/25 07:01:12;;;;;;;;;;;;;;;30.99;48.41;100973.03;4978354;28;65213;-43
2022/02/25 07:03:42;;;;;;;;;;;;;;;31.01;47.75;100971.75;4978892;28;70235;-42
2022/02/25 07:06:15;;;;;;;;;;;;;;;31.01;48.13;100963.63;4975301;28;65481;-47
2022/02/25 07:08:44;;;;;;;;;;;;;;;31.04;47.95;100957.78;4976079;28;68524;-43
2022/02/25 07:11:15;;;;;;;;;;;;;;;31.07;48.04;100951.91;4977308;27;65613;-43
2022/02/25 07:13:45;;;;;;;;;;;;;;;31.08;47.79;100956.28;4975937;28;69626;-43
2022/02/25 07:16:16;;;;;;;;;;;;;;;31.12;47.99;100949.38;4975258;28;65808;-43
2022/02/25 07:18:46;;;;;;;;;;;;;;;31.13;47.96;100940.19;4976470;28;69886;-43
2022/02/25 07:21:17;;;;;;;;;;;;;;;31.16;48.28;100934.31;4970888;28;66257;-42
2022/02/25 07:23:48;;;;;;;;;;;;;;;31.20;47.77;100936.59;4975727;28;69910;-43
2022/02/25 07:26:19;;;;;;;;;;;;;;;31.21;47.92;100928.25;4970754;28;65140;-43
2022/02/25 07:28:48;;;;;;;;;;;;;;;31.24;47.83;100924.28;4967407;28;70804;-42
2022/02/25 07:31:18;;;;;;;;;;;;;;;31.28;47.60;100930.91;4976961;28;65248;-42
2022/02/25 07:33:48;;;;;;;;;;;;;;;31.30;47.89;100920.66;4972473;28;70144;-42
2022/02/25 07:36:18;;;;;;;;;;;;;;;31.30;47.98;100917.97;4977807;28;67023;-42
2022/02/25 07:38:48;;;;;;;;;;;;;;;31.32;47.64;100921.28;4985764;27;69712;-43
2022/02/25 07:41:18;;;;;;;;;;;;;;;31.33;48.02;100917.50;4979191;28;66379;-44
2022/02/25 07:43:48;;;;;;;;;;;;;;;31.34;47.69;100908.31;4976257;28;69709;-43
2022/02/25 07:46:17;;;;;;;;;;;;;;;31.35;47.68;100915.41;4977312;28;65466;-42
2022/02/25 07:48:48;;;;;;;;;;;;;;;31.36;47.85;100917.91;4985438;27;70378;-42
2022/02/25 07:51:18;;;;;;;;;;;;;;;31.37;48.02;100922.31;4969196;28;66730;-44
2022/02/25 07:53:48;;;;;;;;;;;;;;;31.38;48.03;100915.00;4970485;28;69855;-43
2022/02/25 07:56:18;;;;;;;;;;;;;;;31.39;48.10;100920.19;4958021;28;67475;-43
2022/02/25 07:58:48;;;;;;;;;;;;;;;31.42;47.87;100918.91;4976658;28;69439;-42
2022/02/25 08:01:19;;;;;;;;;;;;;;;31.45;48.10;100914.94;4965093;28;66649;-42
2022/02/25 08:03:49;;;;;;;;;;;;;;;31.46;48.20;100913.91;4975437;28;69070;-43
2022/02/25 08:06:18;;;;;;;;;;;;;;;31.48;48.00;100915.31;4976810;28;67725;-43
2022/02/25 08:08:48;;;;;;;;;;;;;;;31.51;48.16;100917.59;4976857;27;70806;-43
2022/02/25 08:11:18;;;;;;;;;;;;;;;31.53;47.63;100923.59;4963264;28;66276;-43
2022/02/25 08:13:48;;;;;;;;;;;;;;;31.55;47.38;100921.50;4962737;28;70650;-42
2022/02/25 08:16:18;;;;;;;;;;;;;;;31.57;47.58;100926.72;4963727;28;67093;-43
2022/02/25 08:18:48;;;;;;;;;;;;;;;31.58;47.50;100931.88;4976061;28;70039;-42
2022/02/25 08:21:18;;;;;;;;;;;;;;;31.60;47.74;100932.50;4977530;28;66218;-42
2022/02/25 08:23:48;;;;;;;;;;;;;;;31.60;47.55;100929.78;4975193;28;70520;-42
2022/02/25 08:26:18;;;;;;;;;;;;;;;31.63;47.58;100924.97;4987203;28;65131;-42
2022/02/25 08:28:48;;;;;;;;;;;;;;;31.64;47.53;100918.50;4966624;28;70371;-43
2022/02/25 08:31:23;;;;;;;;;;;;;;;31.65;47.83;100922.84;4976952;28;64951;-42
2022/02/25 08:33:53;;;;;;;;;;;;;;;31.67;47.49;100918.03;4975583;28;70615;-42
2022/02/25 08:36:23;;;;;;;;;;;;;;;31.69;47.92;100915.94;4976210;28;66004;-43
2022/02/25 08:38:53;;;;;;;;;;;;;;;31.72;47.61;100920.91;4977021;28;70866;-42
2022/02/25 08:41:22;;;;;;;;;;;;;;;31.73;48.05;100927.97;4972182;28;67028;-43
2022/02/25 08:43:52;;;;;;;;;;;;;;;31.76;47.63;100919.41;4975490;28;70012;-42
2022/02/25 08:46:22;;;;;;;;;;;;;;;31.78;48.03;100920.81;4980564;28;65673;-42
2022/02/25 08:48:52;;;;;;;;;;;;;;;31.80;47.82;100934.19;4978256;28;69564;-43
2022/02/25 08:51:22;;;;;;;;;;;;;;;31.80;47.77;100924.16;4978846;28;67430;-43
2022/02/25 08:53:52;;;;;;;;;;;;;;;31.81;47.77;100924.97;4979171;28;69956;-43
2022/02/25 08:56:25;;;;;;;;;;;;;;;31.82;47.78;100930.19;4990617;28;66602;-43
2022/02/25 08:58:55;;;;;;;;;;;;;;;31.83;47.72;100920.97;4967231;28;70551;-43
2022/02/25 09:01:26;;;;;;;;;;;;;;;31.82;47.78;100926.66;4980611;28;66889;-43
2022/02/25 09:04:00;;;;;;;;;;;;;;;31.85;47.69;100923.50;4964859;28;71709;-43
2022/02/25 09:06:30;;;;;;;;;;;;;;;31.85;47.79;100926.19;4992684;27;66696;-43
2022/02/25 09:09:00;;;;;;;;;;;;;;;31.86;47.83;100930.56;4930689;28;68945;-43
2022/02/25 09:11:30;;;;;;;;;;;;;;;31.87;48.19;100929.50;4978729;28;66965;-42
2022/02/25 09:14:00;;;;;;;;;;;;;;;31.85;47.61;100926.19;4979531;28;70448;-43
2022/02/25 09:16:30;;;;;;;;;;;;;;;31.86;47.65;100930.56;4963454;28;66384;-44
2022/02/25 09:19:02;;;;;;;;;;;;;;;31.87;48.17;100934.91;4977515;28;70613;-42
2022/02/25 09:21:32;;;;;;;;;;;;;;;31.87;47.95;100934.91;4979731;28;66331;-43
2022/02/25 09:24:02;;;;;;;;;;;;;;;31.88;47.65;100925.75;4978901;28;70087;-44
2022/02/25 09:26:32;;;;;;;;;;;;;;;31.89;48.08;100927.38;4965803;28;65601;-43
2022/02/25 09:29:02;;;;;;;;;;;;;;;31.89;47.94;100927.38;4977630;28;69871;-42
2022/02/25 09:31:32;;;;;;;;;;;;;;;31.90;48.09;100929.06;4979098;27;66997;-42
2022/02/25 09:34:02;;;;;;;;;;;;;;;31.91;47.63;100930.75;4979050;28;70875;-43
2022/02/25 09:36:33;;;;;;;;;;;;;;;31.92;48.05;100931.56;4961504;28;66418;-43
2022/02/25 09:39:03;;;;;;;;;;;;;;;31.94;47.77;100941.13;4977670;28;69950;-43
2022/02/25 09:41:33;;;;;;;;;;;;;;;31.95;48.24;100941.97;4981471;28;64849;-43
2022/02/25 09:44:03;;;;;;;;;;;;;;;31.97;47.92;100940.69;4988830;27;70341;-44
2022/02/25 09:46:33;;;;;;;;;;;;;;;31.99;48.17;100944.00;4963714;28;66357;-43
2022/02/25 09:49:03;;;;;;;;;;;;;;;31.98;47.87;100945.06;4961625;28;69615;-44
2022/02/25 09:51:33;;;;;;;;;;;;;;;31.99;47.63;100949.44;4978436;28;66382;-44
2022/02/25 09:54:03;;;;;;;;;;;;;;;31.99;47.95;100941.28;4977642;28;69043;-44
2022/02/25 09:56:33;;;;;;;;;;;;;;;31.99;48.11;100949.44;4963516;28;65530;-43
2022/02/25 09:59:03;;;;;;;;;;;;;;;31.99;47.69;100949.44;4986457;28;70073;-42
2022/02/25 10:01:34;;;;;;;;;;;;;;;31.98;47.58;100952.38;4984011;28;66651;-44
2022/02/25 10:04:12;;;;;;;;;;;;;;;32.00;47.82;100961.94;4978911;28;69978;-44
2022/02/25 10:06:42;;;;;;;;;;;;;;;32.00;48.20;100961.94;4978400;28;65390;-43
2022/02/25 10:09:13;;;;;;;;;;;;;;;31.99;48.16;100965.72;4977462;28;70531;-42
2022/02/25 10:12:03;;;;;;;;;;;;;;;31.99;48.42;100968.44;4978184;28;66257;-43
2022/02/25 10:14:39;;;;;;;;;;;;;;;31.99;47.79;100960.28;4975691;28;69710;-42
2022/02/25 10:17:10;;;;;;;;;;;;;;;31.99;48.19;100973.03;4980115;28;66599;-43
2022/02/25 10:19:41;;;;;;;;;;;;;;;31.98;47.90;100974.91;4978518;28;68902;-43
2022/02/25 10:22:12;;;;;;;;;;;;;;;31.99;48.07;100973.03;4978091;28;66847;-42
2022/02/25 10:24:45;;;;;;;;;;;;;;;31.91;48.22;100967.88;4976112;28;69979;-43
2022/02/25 10:27:22;;;;;;;;;;;;;;;31.98;48.13;100991.19;4960294;28;66487;-43
2022/02/25 10:29:55;;;;;;;;;;;;;;;31.99;47.99;100994.75;4976924;28;69016;-43
2022/02/25 10:32:27;;;;;;;;;;;;;;;31.98;48.37;100996.63;4966035;28;65658;-44
2022/02/25 10:34:56;;;;;;;;;;;;;;;31.96;47.96;100985.16;4972578;28;69603;-44
2022/02/25 10:37:26;;;;;;;;;;;;;;;31.95;48.14;100994.34;4975821;28;65989;-44
2022/02/25 10:39:56;;;;;;;;;;;;;;;31.95;48.06;101002.47;4976853;28;70727;-44
2022/02/25 10:42:26;;;;;;;;;;;;;;;31.95;48.15;101002.47;4978047;28;66030;-43
2022/02/25 10:44:57;;;;;;;;;;;;;;;31.94;49.04;101000.00;4977776;28;70568;-45
2022/02/25 10:47:29;;;;;;;;;;;;;;;31.95;49.32;101007.91;4975526;28;66696;-44
2022/02/25 10:49:59;;;;;;;;;;;;;;;31.99;49.31;101014.56;4985680;28;68455;-42
2022/02/25 10:52:36;;;;;;;;;;;;;;;31.97;48.49;101016.66;4985490;28;66643;-44
2022/02/25 10:55:11;;;;;;;;;;;;;;;31.75;48.78;100982.84;4976086;28;69645;-49
2022/02/25 10:57:40;;;;;;;;;;;;;;;31.92;49.53;101016.50;4977342;28;66104;-43
2022/02/25 11:00:12;;;;;;;;;;;;;;;31.88;50.02;101011.72;4971045;28;70379;-43
2022/02/25 11:02:49;;;;;;;;;;;;;;;31.84;50.24;101022.19;4975713;27;66151;-44
2022/02/25 11:05:24;;;;;;;;;;;;;;;31.80;50.47;101026.41;4947266;28;69815;-44
2022/02/25 11:07:54;;;;;;;;;;;;;;;31.75;50.96;101024.34;4979881;28;66482;-44
2022/02/25 11:10:25;;;;;;;;;;;;;;;31.75;50.61;101023.53;4990463;28;69685;-44
2022/02/25 11:12:56;;;;;;;;;;;;;;;31.75;50.72;101034.38;4973351;28;66279;-44
2022/02/25 11:15:27;;;;;;;;;;;;;;;31.74;51.25;101044.41;4974653;28;70556;-44
2022/02/25 11:17:57;;;;;;;;;;;;;;;31.72;51.74;101053.81;4975819;28;65821;-43
2022/02/25 11:20:29;;;;;;;;;;;;;;;31.69;52.15;101043.41;4977495;28;69881;-43
2022/02/25 11:22:58;;;;;;;;;;;;;;;31.71;51.99;101049.44;4968260;28;64379;-44
2022/02/25 11:25:29;;;;;;;;;;;;;;;31.71;51.70;101049.44;4972449;28;70909;-43
2022/02/25 11:27:59;;;;;;;;;;;;;;;31.68;51.80;101049.84;4976678;28;66926;-44
2022/02/25 11:30:30;;;;;;;;;;;;;;;31.69;51.59;101046.13;4971884;28;69906;-44
2022/02/25 11:33:05;;;;;;;;;;;;;;;31.70;51.57;101058.63;4983330;27;66636;-44
2022/02/25 11:35:36;;;;;;;;;;;;;;;31.67;52.21;101053.63;4975176;28;69316;-44
2022/02/25 11:38:10;;;;;;;;;;;;;;;31.68;52.04;101055.28;4976234;28;67707;-44
2022/02/25 11:40:54;;;;;;;;;;;;;;;31.65;52.07;101051.16;4977654;27;70207;-44
2022/02/25 11:43:33;;;;;;;;;;;;;;;31.65;52.69;101044.88;4974553;28;66006;-43
2022/02/25 11:46:05;;;;;;;;;;;;;;;31.64;52.51;101045.94;4975666;28;69770;-43
2022/02/25 11:48:46;;;;;;;;;;;;;;;31.60;52.74;101046.41;4973909;28;66533;-43
2022/02/25 11:51:32;;;;;;;;;;;;;;;31.61;53.09;101055.34;4974469;28;68817;-44
2022/02/25 11:54:20;;;;;;;;;;;;;;;31.61;52.61;101067.03;4950242;28;66373;-44
2022/02/25 11:56:56;;;;;;;;;;;;;;;31.60;51.60;101073.50;4986951;27;69345;-43
2022/02/25 11:59:47;;;;;;;;;;;;;;;31.63;49.55;101068.69;4959691;28;65597;-43
2022/02/25 12:02:19;;;;;;;;;;;;;;;31.60;49.58;101076.22;4975495;28;69942;-46
2022/02/25 12:04:55;;;;;;;;;;;;;;;31.60;49.19;101086.25;4973112;28;66941;-43
2022/02/25 12:07:49;;;;;;;;;;;;;;;31.65;50.04;101080.13;4976659;28;70689;-45
2022/02/25 12:10:22;;;;;;;;;;;;;;;31.65;51.09;101082.84;4972481;28;66305;-43
2022/02/25 12:13:03;;;;;;;;;;;;;;;31.45;51.93;101064.84;4983556;28;70016;-41
2022/02/25 12:15:33;;;;;;;;;;;;;;;31.54;52.86;101079.81;4971980;28;66454;-44
2022/02/25 12:18:04;;;;;;;;;;;;;;;31.57;53.64;101086.69;4954608;28;70371;-46
2022/02/25 12:20:59;;;;;;;;;;;;;;;31.48;53.75;101080.72;4978124;28;65517;-43
2022/02/25 12:23:40;;;;;;;;;;;;;;;31.48;53.73;101091.56;4980715;28;69881;-45
2022/02/25 12:26:10;;;;;;;;;;;;;;;31.47;53.93;101092.59;4966698;28;65937;-44
2022/02/25 12:28:45;;;;;;;;;;;;;;;31.43;54.75;101095.97;4963363;28;68560;-43
2022/02/25 12:31:16;;;;;;;;;;;;;;;31.41;54.39;101098.88;4977837;28;66109;-42
2022/02/25 12:33:46;;;;;;;;;;;;;;;31.43;54.58;101095.97;4969207;28;69967;-43
2022/02/25 12:36:34;;;;;;;;;;;;;;;31.40;54.32;101113.50;4994533;27;66335;-45
2022/02/25 12:39:13;;;;;;;;;;;;;;;31.41;52.39;101104.31;4979985;28;70573;-49
2022/02/25 12:41:49;;;;;;;;;;;;;;;31.38;52.89;101121.00;4973842;28;66808;-44
2022/02/25 12:44:23;;;;;;;;;;;;;;;31.35;52.64;101116.00;4959871;28;69978;-43
2022/02/25 12:46:54;;;;;;;;;;;;;;;31.36;52.58;101114.97;4959692;28;65641;-44
2022/02/25 12:49:25;;;;;;;;;;;;;;;31.36;52.18;101118.50;4972819;28;70498;-44
2022/02/25 12:51:56;;;;;;;;;;;;;;;31.35;52.34;101127.66;4988825;28;65829;-43
2022/02/25 12:54:30;;;;;;;;;;;;;;;31.35;51.88;101126.84;4972391;28;69945;-45
2022/02/25 12:57:01;;;;;;;;;;;;;;;31.31;51.89;101133.72;4995076;27;67366;-43
2022/02/25 12:59:33;;;;;;;;;;;;;;;31.28;52.20;101126.03;4978543;28;70316;-45
2022/02/25 13:02:09;;;;;;;;;;;;;;;31.30;51.88;101124.78;4981549;27;66527;-46